createdAt,value
2016-05-06T00:00:15.585Z,13.25
2016-05-06T00:01:15.619Z,13.38
2016-05-06T00:02:15.652Z,13.33
2016-05-06T00:03:15.687Z,13.35
2016-05-06T00:04:15.737Z,13.31
2016-05-06T00:05:15.755Z,13.38
2016-05-06T00:06:15.788Z,13.39
2016-05-06T00:07:15.838Z,13.38
2016-05-06T00:08:15.871Z,13.27
2016-05-06T00:09:15.906Z,13.23
2016-05-06T00:10:16.205Z,13.3
2016-05-06T00:11:15.974Z,13.25
2016-05-06T00:12:15.851Z,13.3
2016-05-06T00:13:16.058Z,13.31
2016-05-06T00:14:16.076Z,13.44
2016-05-06T00:15:16.110Z,13.42
2016-05-06T00:16:16.143Z,13.33
2016-05-06T00:17:16.177Z,13.27
2016-05-06T00:18:16.054Z,13.33
2016-05-06T00:19:16.261Z,13.31
2016-05-06T00:20:16.295Z,13.41
2016-05-06T00:21:16.321Z,13.42
2016-05-06T00:22:16.356Z,13.27
2016-05-06T00:23:16.390Z,13.31
2016-05-06T00:24:16.424Z,13.41
2016-05-06T00:25:16.317Z,13.3
2016-05-06T00:26:16.335Z,13.25
2016-05-06T00:27:16.526Z,13.15
2016-05-06T00:28:16.560Z,13.13
2016-05-06T00:29:16.609Z,13.2
2016-05-06T00:30:16.627Z,13.35
2016-05-06T00:31:16.521Z,13.13
2016-05-06T00:32:16.554Z,13.19
2016-05-06T00:33:16.729Z,13.2
2016-05-06T00:34:16.779Z,13.16
2016-05-06T00:35:16.500Z,13.13
2016-05-06T00:36:16.707Z,13.18
2016-05-06T00:37:16.881Z,13.23
2016-05-06T00:38:16.914Z,13.05
2016-05-06T00:39:16.933Z,13.03
2016-05-06T00:40:16.998Z,13.01
2016-05-06T00:41:16.844Z,12.94
2016-05-06T00:42:16.894Z,13.01
2016-05-06T00:43:17.084Z,12.94
2016-05-06T00:44:16.806Z,12.87
2016-05-06T00:45:17.011Z,12.9
2016-05-06T00:46:17.186Z,13.08
2016-05-06T00:47:17.219Z,13.01
2016-05-06T00:48:17.254Z,12.94
2016-05-06T00:49:17.288Z,13.11
2016-05-06T00:50:17.181Z,13.16
2016-05-06T00:51:17.371Z,13.18
2016-05-06T00:52:17.233Z,13.09
2016-05-06T00:53:17.439Z,13.05
2016-05-06T00:54:17.317Z,13.03
2016-05-06T00:55:17.335Z,13
2016-05-06T00:56:17.541Z,12.91
2016-05-06T00:57:17.575Z,12.94
2016-05-06T00:58:17.609Z,12.78
2016-05-06T00:59:17.643Z,12.78
2016-05-06T01:00:17.676Z,12.76
2016-05-06T01:01:17.555Z,12.93
2016-05-06T01:02:17.588Z,12.78
2016-05-06T01:03:17.779Z,12.78
2016-05-06T01:04:17.672Z,12.78
2016-05-06T01:05:17.846Z,12.72
2016-05-06T01:06:17.584Z,12.73
2016-05-06T01:07:17.915Z,12.72
2016-05-06T01:08:17.964Z,12.8
2016-05-06T01:09:17.998Z,12.83
2016-05-06T01:10:18.032Z,12.76
2016-05-06T01:11:18.066Z,12.75
2016-05-06T01:12:18.100Z,12.83
2016-05-06T01:13:18.117Z,12.68
2016-05-06T01:14:18.168Z,12.83
2016-05-06T01:15:18.045Z,12.9
2016-05-06T01:16:18.220Z,12.86
2016-05-06T01:17:18.269Z,12.83
2016-05-06T01:18:18.303Z,12.73
2016-05-06T01:19:18.338Z,12.75
2016-05-06T01:20:18.387Z,12.75
2016-05-06T01:21:18.389Z,12.61
2016-05-06T01:22:18.282Z,12.62
2016-05-06T01:23:18.474Z,12.75
2016-05-06T01:24:18.522Z,12.72
2016-05-06T01:25:18.541Z,12.78
2016-05-06T01:26:18.574Z,12.54
2016-05-06T01:27:18.828Z,12.54
2016-05-06T01:28:18.643Z,12.58
2016-05-06T01:29:18.677Z,12.54
2016-05-06T01:30:18.710Z,12.55
2016-05-06T01:31:18.901Z,12.53
2016-05-06T01:32:18.779Z,12.47
2016-05-06T01:33:18.828Z,12.45
2016-05-06T01:34:18.846Z,12.43
2016-05-06T01:35:18.880Z,12.49
2016-05-06T01:36:18.759Z,12.36
2016-05-06T01:37:18.948Z,12.29
2016-05-06T01:38:18.825Z,12.32
2016-05-06T01:39:18.719Z,12.42
2016-05-06T01:40:18.926Z,12.42
2016-05-06T01:41:19.084Z,12.18
2016-05-06T01:42:19.133Z,12.22
2016-05-06T01:43:19.153Z,12.27
2016-05-06T01:44:19.045Z,12.24
2016-05-06T01:45:19.236Z,12.27
2016-05-06T01:46:19.269Z,12.27
2016-05-06T01:47:19.288Z,12.2
2016-05-06T01:48:19.337Z,12.15
2016-05-06T01:49:19.387Z,12.09
2016-05-06T01:50:33.563Z,12.15
2016-05-06T01:51:19.438Z,12.13
2016-05-06T01:52:19.489Z,12.03
2016-05-06T01:53:19.523Z,12.07
2016-05-06T01:54:19.541Z,11.99
2016-05-06T01:55:19.434Z,12.09
2016-05-06T01:56:19.609Z,12.07
2016-05-06T01:57:19.643Z,11.97
2016-05-06T01:58:19.677Z,11.9
2016-05-06T01:59:19.726Z,11.97
2016-05-06T02:00:19.604Z,11.97
2016-05-06T02:01:19.779Z,11.97
2016-05-06T02:02:19.828Z,11.99
2016-05-06T02:03:19.846Z,11.9
2016-05-06T02:04:19.879Z,11.94
2016-05-06T02:05:19.915Z,11.87
2016-05-06T02:06:19.948Z,11.91
2016-05-06T02:07:20.013Z,11.84
2016-05-06T02:08:20.015Z,11.72
2016-05-06T02:09:20.050Z,11.81
2016-05-06T02:10:19.943Z,11.87
2016-05-06T02:11:19.805Z,11.78
2016-05-06T02:12:20.167Z,11.75
2016-05-06T02:13:20.045Z,11.86
2016-05-06T02:14:20.236Z,11.73
2016-05-06T02:15:20.253Z,11.84
2016-05-06T02:16:20.303Z,11.87
2016-05-06T02:17:20.181Z,11.8
2016-05-06T02:18:20.387Z,11.68
2016-05-06T02:19:20.405Z,11.59
2016-05-06T02:20:20.283Z,11.7
2016-05-06T02:21:20.489Z,11.52
2016-05-06T02:22:20.507Z,11.52
2016-05-06T02:23:20.541Z,11.63
2016-05-06T02:24:20.562Z,11.69
2016-05-06T02:25:21.097Z,11.75
2016-05-06T02:26:20.646Z,11.6
2016-05-06T02:27:20.681Z,11.66
2016-05-06T02:28:20.698Z,11.84
2016-05-06T02:29:20.733Z,11.77
2016-05-06T02:30:20.781Z,11.87
2016-05-06T02:31:20.660Z,11.83
2016-05-06T02:32:20.694Z,11.83
2016-05-06T02:33:20.868Z,11.86
2016-05-06T02:34:20.917Z,11.69
2016-05-06T02:35:20.936Z,11.65
2016-05-06T02:36:21.002Z,11.7
2016-05-06T02:37:21.019Z,11.72
2016-05-06T02:38:21.054Z,11.75
2016-05-06T02:39:21.072Z,11.84
2016-05-06T02:40:20.981Z,11.87
2016-05-06T02:41:21.218Z,11.78
2016-05-06T02:42:21.017Z,11.66
2016-05-06T02:43:21.207Z,11.77
2016-05-06T02:44:21.258Z,11.81
2016-05-06T02:45:21.291Z,11.95
2016-05-06T02:46:21.324Z,11.87
2016-05-06T02:47:21.360Z,11.95
2016-05-06T02:48:21.377Z,11.94
2016-05-06T02:49:21.426Z,11.9
2016-05-06T02:50:21.445Z,11.9
2016-05-06T02:51:21.496Z,11.84
2016-05-06T02:52:21.529Z,11.87
2016-05-06T02:53:21.562Z,11.88
2016-05-06T02:54:21.597Z,11.78
2016-05-06T02:55:22.145Z,11.84
2016-05-06T02:56:21.665Z,11.9
2016-05-06T02:57:21.714Z,11.83
2016-05-06T02:58:21.561Z,11.73
2016-05-06T02:59:21.767Z,11.72
2016-05-06T03:00:21.801Z,11.75
2016-05-06T03:01:21.834Z,11.87
2016-05-06T03:02:21.852Z,11.84
2016-05-06T03:03:21.903Z,11.84
2016-05-06T03:04:21.780Z,11.81
2016-05-06T03:05:21.814Z,11.86
2016-05-06T03:06:22.003Z,11.94
2016-05-06T03:07:22.038Z,11.9
2016-05-06T03:08:22.072Z,11.87
2016-05-06T03:09:22.105Z,11.91
2016-05-06T03:10:22.139Z,11.69
2016-05-06T03:11:22.174Z,11.65
2016-05-06T03:12:22.208Z,11.69
2016-05-06T03:13:22.226Z,11.69
2016-05-06T03:14:22.275Z,11.66
2016-05-06T03:15:22.137Z,11.66
2016-05-06T03:16:22.328Z,11.66
2016-05-06T03:17:22.377Z,11.88
2016-05-06T03:18:22.427Z,11.86
2016-05-06T03:19:22.445Z,11.9
2016-05-06T03:20:22.479Z,11.78
2016-05-06T03:21:22.498Z,11.51
2016-05-06T03:22:22.531Z,11.45
2016-05-06T03:23:22.409Z,11.41
2016-05-06T03:24:22.459Z,11.33
2016-05-06T03:25:22.649Z,11.25
2016-05-06T03:26:22.370Z,11.37
2016-05-06T03:27:22.717Z,11.44
2016-05-06T03:28:22.751Z,11.4
2016-05-06T03:29:22.472Z,11.48
2016-05-06T03:30:22.818Z,11.45
2016-05-06T03:31:22.681Z,11.5
2016-05-06T03:32:22.902Z,11.7
2016-05-06T03:33:22.905Z,11.72
2016-05-06T03:34:22.939Z,11.63
2016-05-06T03:35:22.988Z,11.69
2016-05-06T03:36:23.006Z,11.72
2016-05-06T03:37:23.041Z,11.68
2016-05-06T03:38:23.090Z,11.75
2016-05-06T03:39:23.124Z,11.77
2016-05-06T03:40:23.142Z,11.62
2016-05-06T03:41:23.530Z,11.51
2016-05-06T03:42:23.078Z,11.44
2016-05-06T03:43:23.271Z,11.55
2016-05-06T03:44:23.445Z,11.6
2016-05-06T03:45:23.291Z,11.52
2016-05-06T03:46:23.341Z,11.44
2016-05-06T03:47:23.375Z,11.45
2016-05-06T03:48:23.097Z,11.37
2016-05-06T03:49:23.443Z,11.23
2016-05-06T03:50:23.477Z,11.19
2016-05-06T03:51:23.510Z,11.29
2016-05-06T03:52:23.544Z,11.22
2016-05-06T03:53:23.579Z,11.45
2016-05-06T03:54:23.596Z,11.44
2016-05-06T03:55:23.647Z,11.45
2016-05-06T03:56:23.743Z,11.43
2016-05-06T03:57:23.543Z,11.22
2016-05-06T03:58:23.592Z,11.25
2016-05-06T03:59:23.782Z,11.26
2016-05-06T04:00:23.801Z,11.5
2016-05-06T04:01:23.851Z,11.4
2016-05-06T04:02:23.884Z,11.44
2016-05-06T04:03:23.902Z,11.45
2016-05-06T04:04:23.781Z,11.44
2016-05-06T04:05:23.814Z,11.44
2016-05-06T04:06:24.035Z,11.48
2016-05-06T04:07:24.054Z,11.25
2016-05-06T04:08:24.073Z,11.27
2016-05-06T04:09:23.965Z,11.36
2016-05-06T04:10:23.999Z,11.33
2016-05-06T04:11:24.551Z,11.44
2016-05-06T04:12:24.222Z,11.4
2016-05-06T04:13:24.258Z,11.41
2016-05-06T04:14:24.291Z,11.36
2016-05-06T04:15:24.310Z,11.45
2016-05-06T04:16:24.359Z,11.41
2016-05-06T04:17:24.377Z,11.37
2016-05-06T04:18:24.255Z,11.33
2016-05-06T04:19:24.445Z,11.29
2016-05-06T04:20:24.324Z,11.26
2016-05-06T04:21:24.357Z,11.23
2016-05-06T04:22:24.549Z,11.35
2016-05-06T04:23:24.599Z,11.33
2016-05-06T04:24:24.618Z,11.32
2016-05-06T04:25:24.651Z,11.32
2016-05-06T04:26:24.542Z,11.35
2016-05-06T04:27:24.720Z,11.35
2016-05-06T04:28:24.754Z,11.43
2016-05-06T04:29:24.787Z,11.45
2016-05-06T04:30:24.821Z,11.52
2016-05-06T04:31:24.871Z,11.54
2016-05-06T04:32:24.890Z,11.57
2016-05-06T04:33:24.609Z,11.7
2016-05-06T04:34:24.801Z,11.78
2016-05-06T04:35:24.976Z,11.99
2016-05-06T04:36:25.025Z,12.02
2016-05-06T04:37:24.903Z,12.17
2016-05-06T04:38:25.092Z,12.27
2016-05-06T04:39:25.127Z,12.39
2016-05-06T04:40:25.005Z,12.68
2016-05-06T04:41:25.273Z,12.78
2016-05-06T04:42:25.072Z,12.61
2016-05-06T04:43:25.278Z,12.61
2016-05-06T04:44:25.297Z,12.65
2016-05-06T04:45:25.330Z,12.57
2016-05-06T04:46:25.364Z,12.61
2016-05-06T04:47:25.414Z,12.49
2016-05-06T04:48:25.433Z,12.43
2016-05-06T04:49:25.310Z,12.4
2016-05-06T04:50:25.500Z,12.4
2016-05-06T04:51:25.534Z,12.4
2016-05-06T04:52:25.412Z,12.46
2016-05-06T04:53:25.602Z,12.4
2016-05-06T04:54:25.324Z,12.29
2016-05-06T04:55:25.670Z,12.28
2016-05-06T04:56:25.719Z,12.21
2016-05-06T04:57:25.754Z,12.12
2016-05-06T04:58:25.787Z,12.09
2016-05-06T04:59:25.806Z,12.15
2016-05-06T05:00:25.839Z,12.07
2016-05-06T05:01:25.890Z,12.18
2016-05-06T05:02:25.907Z,12.28
2016-05-06T05:03:25.941Z,12.25
2016-05-06T05:04:25.991Z,12.37
2016-05-06T05:05:26.009Z,12.39
2016-05-06T05:06:25.887Z,12.39
2016-05-06T05:07:26.077Z,12.27
2016-05-06T05:08:26.127Z,12.31
2016-05-06T05:09:26.145Z,12.29
2016-05-06T05:10:26.202Z,12.43
2016-05-06T05:11:26.298Z,12.45
2016-05-06T05:12:26.364Z,12.49
2016-05-06T05:13:26.461Z,12.57
2016-05-06T05:14:26.542Z,12.65
2016-05-06T05:15:26.608Z,12.61
2016-05-06T05:16:26.488Z,12.7
2016-05-06T05:17:26.695Z,12.72
2016-05-06T05:18:26.761Z,12.79
2016-05-06T05:19:26.796Z,12.82
2016-05-06T05:20:26.857Z,12.78
2016-05-06T05:21:26.898Z,12.75
2016-05-06T05:22:26.782Z,12.75
2016-05-06T05:23:26.993Z,12.72
2016-05-06T05:24:27.018Z,12.61
2016-05-06T05:25:27.056Z,12.73
2016-05-06T05:26:27.077Z,12.73
2016-05-06T05:27:27.128Z,12.78
2016-05-06T05:28:27.165Z,12.68
2016-05-06T05:29:27.201Z,12.78
2016-05-06T05:30:27.236Z,12.73
2016-05-06T05:31:27.287Z,12.76
2016-05-06T05:32:27.321Z,12.76
2016-05-06T05:33:27.356Z,12.78
2016-05-06T05:34:27.391Z,12.82
2016-05-06T05:35:27.098Z,12.91
2016-05-06T05:36:27.459Z,12.94
2016-05-06T05:37:27.338Z,12.87
2016-05-06T05:38:27.529Z,12.97
2016-05-06T05:39:27.407Z,12.98
2016-05-06T05:40:27.597Z,13.13
2016-05-06T05:41:27.725Z,13.09
2016-05-06T05:42:27.665Z,13.31
2016-05-06T05:43:27.699Z,13.44
2016-05-06T05:44:27.733Z,13.54
2016-05-06T05:45:27.766Z,13.63
2016-05-06T05:46:27.801Z,13.65
2016-05-06T05:47:27.850Z,13.7
2016-05-06T05:48:27.869Z,13.63
2016-05-06T05:49:27.746Z,13.59
2016-05-06T05:50:27.780Z,13.68
2016-05-06T05:51:27.845Z,13.62
2016-05-06T05:52:28.020Z,13.65
2016-05-06T05:53:28.038Z,13.75
2016-05-06T05:54:28.088Z,13.75
2016-05-06T05:55:28.121Z,13.75
2016-05-06T05:56:28.156Z,13.81
2016-05-06T05:57:28.174Z,13.87
2016-05-06T05:58:28.223Z,13.75
2016-05-06T05:59:28.289Z,13.81
2016-05-06T06:00:28.964Z,13.78
2016-05-06T06:01:28.169Z,13.86
2016-05-06T06:02:28.203Z,13.9
2016-05-06T06:03:28.393Z,14.04
2016-05-06T06:04:28.442Z,13.97
2016-05-06T06:05:28.461Z,14.04
2016-05-06T06:06:28.511Z,14.04
2016-05-06T06:07:28.389Z,14.12
2016-05-06T06:08:28.578Z,14.17
2016-05-06T06:09:28.847Z,14.25
2016-05-06T06:10:28.630Z,14.23
2016-05-06T06:11:28.899Z,14.26
2016-05-06T06:12:28.730Z,14.26
2016-05-06T06:13:28.749Z,14.23
2016-05-06T06:14:28.798Z,14.3
2016-05-06T06:15:28.816Z,14.29
2016-05-06T06:16:28.849Z,14.4
2016-05-06T06:17:28.900Z,14.37
2016-05-06T06:18:28.918Z,14.37
2016-05-06T06:19:28.952Z,14.25
2016-05-06T06:20:28.689Z,14.25
2016-05-06T06:21:29.066Z,14.17
2016-05-06T06:22:29.069Z,14.28
2016-05-06T06:23:29.103Z,14.25
2016-05-06T06:24:29.154Z,14.29
2016-05-06T06:25:29.031Z,14.32
2016-05-06T06:26:29.065Z,14.14
2016-05-06T06:27:29.239Z,14.23
2016-05-06T06:28:29.273Z,14.26
2016-05-06T06:29:29.322Z,14.32
2016-05-06T06:30:29.201Z,14.33
2016-05-06T06:31:29.390Z,14.32
2016-05-06T06:32:29.424Z,14.45
2016-05-06T06:33:29.459Z,14.44
2016-05-06T06:34:29.492Z,14.48
2016-05-06T06:35:29.541Z,14.54
2016-05-06T06:36:29.576Z,14.54
2016-05-06T06:37:29.438Z,14.53
2016-05-06T06:38:29.628Z,14.55
2016-05-06T06:39:29.662Z,14.51
2016-05-06T06:40:29.711Z,14.48
2016-05-06T06:41:30.558Z,14.66
2016-05-06T06:42:29.622Z,14.77
2016-05-06T06:43:29.813Z,14.78
2016-05-06T06:44:29.847Z,14.85
2016-05-06T06:45:29.881Z,14.86
2016-05-06T06:46:29.931Z,14.92
2016-05-06T06:47:29.808Z,15
2016-05-06T06:48:29.999Z,15.06
2016-05-06T06:49:30.032Z,15.1
2016-05-06T06:50:30.066Z,15.04
2016-05-06T06:51:29.944Z,15.04
2016-05-06T06:52:30.150Z,15.1
2016-05-06T06:53:30.168Z,15.22
2016-05-06T06:54:44.359Z,15.18
2016-05-06T06:55:31.017Z,15.18
2016-05-06T06:56:30.598Z,15.27
2016-05-06T06:57:44.460Z,15.24
2016-05-06T06:58:30.197Z,15.22
2016-05-06T06:59:30.388Z,15.24
2016-05-06T07:00:30.265Z,15.21
2016-05-06T07:01:30.471Z,15.35
2016-05-06T07:02:30.506Z,15.4
2016-05-06T07:03:30.539Z,15.4
2016-05-06T07:04:30.556Z,15.47
2016-05-06T07:05:30.591Z,15.44
2016-05-06T07:06:30.641Z,15.52
2016-05-06T07:07:30.519Z,15.55
2016-05-06T07:08:30.708Z,15.54
2016-05-06T07:09:30.587Z,15.57
2016-05-06T07:10:30.636Z,15.58
2016-05-06T07:11:31.325Z,15.64
2016-05-06T07:12:30.844Z,15.7
2016-05-06T07:13:30.738Z,15.61
2016-05-06T07:14:30.927Z,15.65
2016-05-06T07:15:30.961Z,15.64
2016-05-06T07:16:30.839Z,15.7
2016-05-06T07:17:30.874Z,15.75
2016-05-06T07:18:31.064Z,15.68
2016-05-06T07:19:31.097Z,15.77
2016-05-06T07:20:31.147Z,15.73
2016-05-06T07:21:31.024Z,15.75
2016-05-06T07:22:31.215Z,15.7
2016-05-06T07:23:31.285Z,15.83
2016-05-06T07:24:31.287Z,15.86
2016-05-06T07:25:31.165Z,15.86
2016-05-06T07:26:31.215Z,16
2016-05-06T07:27:31.406Z,16.21
2016-05-06T07:28:31.439Z,16.35
2016-05-06T07:29:31.457Z,16.41
2016-05-06T07:30:31.351Z,16.61
2016-05-06T07:31:31.542Z,16.54
2016-05-06T07:32:31.576Z,16.57
2016-05-06T07:33:31.609Z,16.6
2016-05-06T07:34:31.642Z,16.75
2016-05-06T07:35:31.677Z,16.76
2016-05-06T07:36:31.726Z,16.78
2016-05-06T07:37:31.760Z,16.79
2016-05-06T07:38:31.794Z,17.15
2016-05-06T07:39:31.828Z,17.41
2016-05-06T07:40:31.703Z,17.6
2016-05-06T07:41:32.146Z,17.79
2016-05-06T07:42:31.786Z,17.7
2016-05-06T07:43:31.980Z,18.07
2016-05-06T07:44:32.013Z,18.37
2016-05-06T07:45:31.888Z,18.52
2016-05-06T07:46:32.097Z,18.86
2016-05-06T07:47:32.130Z,19.04
2016-05-06T07:48:32.166Z,19.26
2016-05-06T07:49:32.199Z,19.88
2016-05-06T07:50:32.232Z,20.39
2016-05-06T07:51:32.282Z,21.18
2016-05-06T07:52:32.316Z,21.21
2016-05-06T07:53:32.381Z,20.97
2016-05-06T07:54:32.399Z,21.69
2016-05-06T07:55:32.274Z,22.1
2016-05-06T07:56:32.515Z,22.54
2016-05-06T07:57:32.517Z,22.51
2016-05-06T07:58:32.568Z,21.75
2016-05-06T07:59:32.443Z,22.54
2016-05-06T08:00:32.632Z,22.73
2016-05-06T08:01:32.697Z,21.61
2016-05-06T08:02:32.715Z,21.22
2016-05-06T08:03:32.750Z,21.05
2016-05-06T08:04:32.627Z,21.42
2016-05-06T08:05:32.833Z,21.85
2016-05-06T08:06:32.726Z,21.76
2016-05-06T08:07:32.917Z,21.83
2016-05-06T08:08:32.966Z,21.95
2016-05-06T08:09:33.000Z,22.22
2016-05-06T08:10:33.065Z,22.59
2016-05-06T08:11:33.036Z,23.25
2016-05-06T08:12:33.117Z,24.13
2016-05-06T08:13:33.182Z,24.55
2016-05-06T08:14:33.217Z,25.01
2016-05-06T08:15:33.094Z,25.29
2016-05-06T08:16:33.160Z,25.4
2016-05-06T08:17:33.349Z,24.89
2016-05-06T08:18:33.399Z,24.88
2016-05-06T08:19:33.449Z,24.53
2016-05-06T08:20:33.482Z,24.08
2016-05-06T08:21:33.532Z,23.65
2016-05-06T08:22:33.410Z,23.21
2016-05-06T08:23:33.616Z,24.14
2016-05-06T08:24:33.668Z,24.68
2016-05-06T08:25:33.718Z,24.01
2016-05-06T08:26:33.767Z,23.77
2016-05-06T08:27:33.801Z,23.78
2016-05-06T08:28:33.851Z,24.17
2016-05-06T08:29:33.884Z,24.16
2016-05-06T08:30:33.934Z,24.24
2016-05-06T08:31:33.984Z,23.99
2016-05-06T08:32:34.034Z,24.29
2016-05-06T08:33:34.067Z,24.53
2016-05-06T08:34:34.117Z,24.8
2016-05-06T08:35:34.198Z,24.98
2016-05-06T08:36:34.059Z,24.88
2016-05-06T08:37:34.250Z,24.78
2016-05-06T08:38:34.142Z,24.86
2016-05-06T08:39:35.303Z,24.93
2016-05-06T08:40:34.398Z,24.53
2016-05-06T08:41:34.292Z,24.55
2016-05-06T08:42:34.482Z,23.77
2016-05-06T08:43:34.375Z,23.05
2016-05-06T08:44:34.581Z,23.55
2016-05-06T08:45:34.615Z,23.87
2016-05-06T08:46:34.680Z,23.93
2016-05-06T08:47:34.714Z,24.03
2016-05-06T08:48:34.763Z,23.68
2016-05-06T08:49:34.813Z,23.95
2016-05-06T08:50:34.847Z,23.86
2016-05-06T08:51:34.912Z,23.12
2016-05-06T08:52:34.947Z,22.9
2016-05-06T08:53:34.996Z,22.83
2016-05-06T08:54:35.046Z,22.3
2016-05-06T08:55:34.936Z,21.88
2016-05-06T08:56:34.985Z,21.45
2016-05-06T08:57:35.194Z,21.55
2016-05-06T08:58:35.229Z,21.99
2016-05-06T08:59:35.262Z,22.36
2016-05-06T09:00:35.327Z,21.88
2016-05-06T09:01:35.361Z,22.2
2016-05-06T09:02:35.396Z,22.38
2016-05-06T09:03:35.460Z,22.38
2016-05-06T09:04:35.351Z,22.13
2016-05-06T09:05:35.559Z,22.1
2016-05-06T09:06:35.419Z,22.22
2016-05-06T09:07:35.674Z,22.43
2016-05-06T09:08:35.692Z,22.53
2016-05-06T09:09:35.567Z,22.75
2016-05-06T09:10:35.617Z,22.55
2016-05-06T09:11:35.811Z,22.15
2016-05-06T09:12:35.859Z,22.26
2016-05-06T09:13:35.894Z,22.07
2016-05-06T09:14:35.943Z,22.15
2016-05-06T09:15:35.977Z,21.82
2016-05-06T09:16:36.027Z,21.83
2016-05-06T09:17:36.061Z,22.54
2016-05-06T09:18:36.110Z,23.23
2016-05-06T09:19:36.160Z,23.59
2016-05-06T09:20:36.224Z,23.28
2016-05-06T09:21:36.244Z,23.56
2016-05-06T09:22:36.293Z,24.54
2016-05-06T09:23:36.183Z,24.84
2016-05-06T09:24:36.217Z,24.61
2016-05-06T09:25:36.267Z,23.78
2016-05-06T09:26:36.474Z,24.58
2016-05-06T09:27:36.507Z,25.06
2016-05-06T09:28:36.541Z,25.55
2016-05-06T09:29:36.590Z,25.77
2016-05-06T09:30:36.484Z,25.73
2016-05-06T09:31:36.673Z,25.72
2016-05-06T09:32:36.739Z,25.1
2016-05-06T09:33:36.788Z,24.55
2016-05-06T09:34:36.823Z,24.26
2016-05-06T09:35:36.888Z,24.39
2016-05-06T09:36:36.765Z,24.73
2016-05-06T09:37:36.971Z,25.58
2016-05-06T09:38:37.006Z,25.62
2016-05-06T09:39:37.070Z,24.84
2016-05-06T09:40:37.104Z,25.44
2016-05-06T09:41:37.154Z,25.85
2016-05-06T09:42:37.203Z,25.87
2016-05-06T09:43:37.237Z,25.06
2016-05-06T09:44:37.303Z,24.53
2016-05-06T09:45:37.181Z,24.61
2016-05-06T09:46:37.245Z,24.32
2016-05-06T09:47:37.436Z,23.81
2016-05-06T09:48:37.486Z,24.17
2016-05-06T09:49:37.535Z,25.31
2016-05-06T09:50:37.412Z,25.93
2016-05-06T09:51:37.462Z,25.78
2016-05-06T09:52:37.527Z,26.29
2016-05-06T09:53:37.717Z,26.81
2016-05-06T09:54:37.767Z,26.92
2016-05-06T09:55:37.816Z,26.74
2016-05-06T09:56:37.866Z,25.8
2016-05-06T09:57:37.900Z,25.78
2016-05-06T09:58:37.949Z,26.29
2016-05-06T09:59:38.015Z,26.65
2016-05-06T10:00:38.048Z,26.96
2016-05-06T10:01:38.083Z,26.84
2016-05-06T10:02:38.007Z,26.74
2016-05-06T10:03:38.056Z,26.36
2016-05-06T10:04:38.263Z,26.31
2016-05-06T10:05:38.343Z,26.05
2016-05-06T10:06:38.345Z,26.47
2016-05-06T10:07:38.396Z,26.81
2016-05-06T10:08:38.476Z,26.06
2016-05-06T10:09:38.495Z,26.77
2016-05-06T10:10:38.560Z,26.9
2016-05-06T10:11:39.125Z,26.88
2016-05-06T10:12:38.659Z,26.56
2016-05-06T10:13:38.693Z,26.77
2016-05-06T10:14:38.743Z,26.4
2016-05-06T10:15:38.792Z,27.14
2016-05-06T10:16:38.686Z,26.88
2016-05-06T10:17:38.891Z,27.32
2016-05-06T10:18:38.941Z,27.3
2016-05-06T10:19:38.991Z,27.05
2016-05-06T10:20:38.727Z,25.58
2016-05-06T10:21:39.090Z,25.29
2016-05-06T10:22:39.139Z,24.78
2016-05-06T10:23:39.189Z,25.03
2016-05-06T10:24:39.238Z,26.18
2016-05-06T10:25:39.302Z,26.84
2016-05-06T10:26:39.369Z,26.41
2016-05-06T10:27:39.387Z,26.55
2016-05-06T10:28:39.265Z,26.03
2016-05-06T10:29:39.486Z,26.16
2016-05-06T10:30:39.535Z,26.16
2016-05-06T10:31:39.585Z,26.31
2016-05-06T10:32:39.635Z,25.26
2016-05-06T10:33:39.685Z,25.35
2016-05-06T10:34:39.734Z,24.74
2016-05-06T10:35:39.784Z,24.73
2016-05-06T10:36:39.832Z,25.48
2016-05-06T10:37:39.898Z,26.21
2016-05-06T10:38:39.932Z,26.31
2016-05-06T10:39:39.965Z,26.58
2016-05-06T10:40:39.890Z,26.88
2016-05-06T10:41:39.940Z,26.41
2016-05-06T10:42:40.146Z,26.47
2016-05-06T10:43:40.180Z,25.26
2016-05-06T10:44:40.229Z,24.92
2016-05-06T10:45:40.279Z,24.84
2016-05-06T10:46:40.344Z,25.23
2016-05-06T10:47:40.378Z,25.8
2016-05-06T10:48:40.428Z,26.78
2016-05-06T10:49:40.336Z,27.15
2016-05-06T10:50:40.559Z,27.58
2016-05-06T10:51:40.420Z,27.55
2016-05-06T10:52:40.641Z,27.11
2016-05-06T10:53:40.535Z,27.26
2016-05-06T10:54:40.725Z,27.55
2016-05-06T10:55:40.775Z,27.9
2016-05-06T10:56:40.903Z,27.83
2016-05-06T10:57:40.889Z,27.36
2016-05-06T10:58:40.939Z,27.49
2016-05-06T10:59:40.988Z,27.83
2016-05-06T11:00:41.039Z,27.21
2016-05-06T11:01:41.071Z,27.54
2016-05-06T11:02:40.982Z,26.75
2016-05-06T11:03:41.187Z,27.42
2016-05-06T11:04:41.237Z,27.68
2016-05-06T11:05:41.285Z,27.93
2016-05-06T11:06:41.335Z,28.42
2016-05-06T11:07:41.385Z,28.35
2016-05-06T11:08:41.435Z,28.44
2016-05-06T11:09:41.515Z,27.2
2016-05-06T11:10:41.549Z,27.4
2016-05-06T11:11:42.896Z,26.95
2016-05-06T11:12:41.649Z,26.18
2016-05-06T11:13:41.698Z,27.15
2016-05-06T11:14:41.764Z,27.96
2016-05-06T11:15:41.642Z,28.2
2016-05-06T11:16:41.690Z,28.05
2016-05-06T11:17:41.912Z,27.95
2016-05-06T11:18:41.962Z,28.57
2016-05-06T11:19:42.011Z,27.68
2016-05-06T11:20:41.905Z,27.93
2016-05-06T11:21:41.954Z,28.63
2016-05-06T11:22:42.176Z,28.94
2016-05-06T11:23:42.209Z,29.2
2016-05-06T11:24:42.274Z,28.84
2016-05-06T11:25:42.325Z,28.12
2016-05-06T11:26:42.421Z,28.17
2016-05-06T11:27:42.424Z,27.9
2016-05-06T11:28:42.489Z,27.9
2016-05-06T11:29:42.538Z,28.07
2016-05-06T11:30:42.603Z,28.57
2016-05-06T11:31:42.638Z,27.55
2016-05-06T11:32:42.687Z,26.44
2016-05-06T11:33:42.736Z,26.22
2016-05-06T11:34:42.646Z,26.56
2016-05-06T11:35:42.695Z,27.45
2016-05-06T11:36:42.902Z,27.82
2016-05-06T11:37:42.951Z,27.8
2016-05-06T11:38:42.999Z,27.92
2016-05-06T11:39:43.050Z,27.96
2016-05-06T11:40:42.802Z,27.21
2016-05-06T11:41:43.165Z,27.29
2016-05-06T11:42:43.245Z,28.02
2016-05-06T11:43:43.138Z,28.25
2016-05-06T11:44:43.313Z,28.48
2016-05-06T11:45:43.222Z,28.75
2016-05-06T11:46:43.428Z,28.48
2016-05-06T11:47:43.478Z,28.69
2016-05-06T11:48:43.370Z,28.44
2016-05-06T11:49:43.608Z,28.45
2016-05-06T11:50:43.470Z,28.04
2016-05-06T11:51:43.535Z,26.85
2016-05-06T11:52:43.725Z,26.43
2016-05-06T11:53:43.790Z,27.32
2016-05-06T11:54:43.840Z,27.83
2016-05-06T11:55:43.733Z,28.25
2016-05-06T11:56:43.955Z,28.08
2016-05-06T11:57:44.004Z,27.92
2016-05-06T11:58:44.070Z,27.9
2016-05-06T11:59:43.947Z,27.96
2016-05-06T12:00:44.012Z,28.7
2016-05-06T12:01:44.219Z,28.86
2016-05-06T12:02:44.127Z,28.74
2016-05-06T12:03:44.317Z,28.81
2016-05-06T12:04:44.366Z,28.12
2016-05-06T12:05:44.417Z,27.92
2016-05-06T12:06:44.482Z,27.8
2016-05-06T12:07:44.531Z,28.33
2016-05-06T12:08:44.425Z,28.38
2016-05-06T12:09:44.630Z,28.33
2016-05-06T12:10:44.711Z,28.47
2016-05-06T12:11:44.917Z,28.79
2016-05-06T12:12:44.795Z,28.39
2016-05-06T12:13:44.844Z,28.63
2016-05-06T12:14:44.893Z,28.45
2016-05-06T12:15:44.818Z,28.02
2016-05-06T12:16:45.023Z,28.05
2016-05-06T12:17:44.902Z,27.86
2016-05-06T12:18:45.154Z,28.23
2016-05-06T12:19:45.017Z,28.47
2016-05-06T12:20:45.223Z,27.82
2016-05-06T12:21:45.272Z,28.45
2016-05-06T12:22:45.337Z,29.19
2016-05-06T12:23:45.231Z,29.63
2016-05-06T12:24:45.280Z,29.22
2016-05-06T12:25:45.501Z,29.51
2016-05-06T12:26:45.411Z,28.81
2016-05-06T12:27:45.445Z,28.97
2016-05-06T12:28:45.650Z,29.04
2016-05-06T12:29:45.699Z,28.48
2016-05-06T12:30:45.453Z,28.56
2016-05-06T12:31:45.658Z,28.67
2016-05-06T12:32:45.895Z,28.6
2016-05-06T12:33:45.945Z,28.38
2016-05-06T12:34:45.979Z,28.47
2016-05-06T12:35:46.028Z,28.29
2016-05-06T12:36:46.077Z,28.37
2016-05-06T12:37:46.144Z,28
2016-05-06T12:38:46.193Z,27.9
2016-05-06T12:39:46.242Z,27.68
2016-05-06T12:40:46.292Z,27.15
2016-05-06T12:41:46.216Z,27.14
2016-05-06T12:42:46.406Z,27.1
2016-05-06T12:43:46.472Z,26.88
2016-05-06T12:44:46.521Z,26.68
2016-05-06T12:45:46.649Z,26.84
2016-05-06T12:46:46.636Z,26.74
2016-05-06T12:47:46.529Z,27.11
2016-05-06T12:48:46.720Z,27.44
2016-05-06T12:49:46.629Z,27.36
2016-05-06T12:50:46.835Z,27.78
2016-05-06T12:51:46.884Z,28
2016-05-06T12:52:46.762Z,28.04
2016-05-06T12:53:46.983Z,27.68
2016-05-06T12:54:52.611Z,27.45
2016-05-06T12:55:47.098Z,27.44